sensor_id;sensor_type;location;lat;lon;timestamp;temperature;humidity
30069;DHT22;16894;49.456;10.644;2022-08-05T00:01:40;20.80;96.60
30069;DHT22;16894;49.456;10.644;2022-08-05T00:04:06;20.80;97.60
30069;DHT22;16894;49.456;10.644;2022-08-05T00:06:32;20.70;97.60
30069;DHT22;16894;49.456;10.644;2022-08-05T00:08:57;20.70;97.50
30069;DHT22;16894;49.456;10.644;2022-08-05T00:11:25;20.70;97.70
30069;DHT22;16894;49.456;10.644;2022-08-05T00:13:50;20.70;97.20
30069;DHT22;16894;49.456;10.644;2022-08-05T00:16:16;20.70;97.30
30069;DHT22;16894;49.456;10.644;2022-08-05T00:18:46;20.70;97.40
30069;DHT22;16894;49.456;10.644;2022-08-05T00:21:13;20.70;96.40
30069;DHT22;16894;49.456;10.644;2022-08-05T00:23:39;20.50;97.50
30069;DHT22;16894;49.456;10.644;2022-08-05T00:26:05;20.40;97.20
30069;DHT22;16894;49.456;10.644;2022-08-05T00:28:31;20.40;98.50
30069;DHT22;16894;49.456;10.644;2022-08-05T00:30:57;20.40;98.70
30069;DHT22;16894;49.456;10.644;2022-08-05T00:33:23;20.50;99.20
30069;DHT22;16894;49.456;10.644;2022-08-05T00:35:48;20.50;99.00
30069;DHT22;16894;49.456;10.644;2022-08-05T00:38:14;20.50;98.80
30069;DHT22;16894;49.456;10.644;2022-08-05T00:40:54;20.50;98.10
30069;DHT22;16894;49.456;10.644;2022-08-05T00:43:21;20.40;98.30
30069;DHT22;16894;49.456;10.644;2022-08-05T00:45:46;20.30;99.10
30069;DHT22;16894;49.456;10.644;2022-08-05T00:48:15;20.30;99.50
30069;DHT22;16894;49.456;10.644;2022-08-05T00:50:42;20.30;99.80
30069;DHT22;16894;49.456;10.644;2022-08-05T00:53:09;20.20;99.70
30069;DHT22;16894;49.456;10.644;2022-08-05T00:55:35;20.30;99.30
30069;DHT22;16894;49.456;10.644;2022-08-05T00:58:01;20.30;98.40
30069;DHT22;16894;49.456;10.644;2022-08-05T01:00:29;20.20;99.00
30069;DHT22;16894;49.456;10.644;2022-08-05T01:02:56;20.10;99.00
30069;DHT22;16894;49.456;10.644;2022-08-05T01:05:22;20.00;99.10
30069;DHT22;16894;49.456;10.644;2022-08-05T01:07:48;20.00;99.90
30069;DHT22;16894;49.456;10.644;2022-08-05T01:10:15;20.00;99.90
30069;DHT22;16894;49.456;10.644;2022-08-05T01:12:46;20.10;99.90
30069;DHT22;16894;49.456;10.644;2022-08-05T01:15:16;20.10;99.90
30069;DHT22;16894;49.456;10.644;2022-08-05T01:17:49;20.10;99.90
30069;DHT22;16894;49.456;10.644;2022-08-05T01:23:42;20.20;99.90
30069;DHT22;16894;49.456;10.644;2022-08-05T01:28:56;20.00;99.90
30069;DHT22;16894;49.456;10.644;2022-08-05T01:34:00;19.90;99.90
30069;DHT22;16894;49.456;10.644;2022-08-05T01:36:31;19.90;99.90
30069;DHT22;16894;49.456;10.644;2022-08-05T01:38:59;19.80;99.90
30069;DHT22;16894;49.456;10.644;2022-08-05T01:41:28;19.80;99.90
30069;DHT22;16894;49.456;10.644;2022-08-05T01:43:54;19.70;99.90
30069;DHT22;16894;49.456;10.644;2022-08-05T01:46:22;19.80;99.90
30069;DHT22;16894;49.456;10.644;2022-08-05T01:48:49;19.80;99.90
30069;DHT22;16894;49.456;10.644;2022-08-05T01:51:17;19.80;99.90
30069;DHT22;16894;49.456;10.644;2022-08-05T01:53:44;19.70;99.90
30069;DHT22;16894;49.456;10.644;2022-08-05T01:56:12;19.70;99.90
30069;DHT22;16894;49.456;10.644;2022-08-05T01:58:40;19.70;99.90
30069;DHT22;16894;49.456;10.644;2022-08-05T02:01:07;19.70;99.90
30069;DHT22;16894;49.456;10.644;2022-08-05T02:03:38;19.60;99.90
30069;DHT22;16894;49.456;10.644;2022-08-05T02:06:06;19.70;99.90
30069;DHT22;16894;49.456;10.644;2022-08-05T02:08:33;19.70;99.90
30069;DHT22;16894;49.456;10.644;2022-08-05T02:11:05;19.60;99.90
30069;DHT22;16894;49.456;10.644;2022-08-05T02:13:45;19.50;99.90
30069;DHT22;16894;49.456;10.644;2022-08-05T02:16:21;19.60;99.90
30069;DHT22;16894;49.456;10.644;2022-08-05T02:21:50;19.50;99.90
30069;DHT22;16894;49.456;10.644;2022-08-05T02:24:20;19.60;99.90
30069;DHT22;16894;49.456;10.644;2022-08-05T02:26:50;19.60;99.90
30069;DHT22;16894;49.456;10.644;2022-08-05T02:29:21;19.60;99.90
30069;DHT22;16894;49.456;10.644;2022-08-05T02:31:48;19.50;99.90
30069;DHT22;16894;49.456;10.644;2022-08-05T02:34:15;19.50;99.90
30069;DHT22;16894;49.456;10.644;2022-08-05T02:36:53;19.50;99.90
30069;DHT22;16894;49.456;10.644;2022-08-05T02:39:21;19.40;99.90
30069;DHT22;16894;49.456;10.644;2022-08-05T02:41:48;19.40;99.90
30069;DHT22;16894;49.456;10.644;2022-08-05T02:44:15;19.40;99.90
30069;DHT22;16894;49.456;10.644;2022-08-05T02:46:45;19.20;99.90
30069;DHT22;16894;49.456;10.644;2022-08-05T02:49:14;19.10;99.90
30069;DHT22;16894;49.456;10.644;2022-08-05T02:51:40;19.00;99.90
30069;DHT22;16894;49.456;10.644;2022-08-05T02:54:06;19.20;99.90
30069;DHT22;16894;49.456;10.644;2022-08-05T02:56:34;19.20;99.90
30069;DHT22;16894;49.456;10.644;2022-08-05T02:59:00;19.20;99.90
30069;DHT22;16894;49.456;10.644;2022-08-05T03:01:28;19.20;99.90
30069;DHT22;16894;49.456;10.644;2022-08-05T03:04:02;19.30;99.90
30069;DHT22;16894;49.456;10.644;2022-08-05T03:06:30;19.40;99.90
30069;DHT22;16894;49.456;10.644;2022-08-05T03:08:56;19.50;99.90
30069;DHT22;16894;49.456;10.644;2022-08-05T03:11:24;19.60;99.90
30069;DHT22;16894;49.456;10.644;2022-08-05T03:13:50;19.80;99.90
30069;DHT22;16894;49.456;10.644;2022-08-05T03:16:17;19.90;99.90
30069;DHT22;16894;49.456;10.644;2022-08-05T03:18:42;20.20;99.90
30069;DHT22;16894;49.456;10.644;2022-08-05T03:21:09;20.40;99.90
30069;DHT22;16894;49.456;10.644;2022-08-05T03:23:35;20.70;99.30
30069;DHT22;16894;49.456;10.644;2022-08-05T03:26:03;20.90;98.80
30069;DHT22;16894;49.456;10.644;2022-08-05T03:28:29;21.00;98.70
30069;DHT22;16894;49.456;10.644;2022-08-05T03:30:55;21.00;98.40
30069;DHT22;16894;49.456;10.644;2022-08-05T03:33:21;21.10;98.20
30069;DHT22;16894;49.456;10.644;2022-08-05T03:35:47;21.20;98.10
30069;DHT22;16894;49.456;10.644;2022-08-05T03:38:14;21.20;98.10
30069;DHT22;16894;49.456;10.644;2022-08-05T03:40:44;21.30;97.60
30069;DHT22;16894;49.456;10.644;2022-08-05T03:43:11;21.30;97.20
30069;DHT22;16894;49.456;10.644;2022-08-05T03:45:36;21.40;97.30
30069;DHT22;16894;49.456;10.644;2022-08-05T03:48:03;21.50;97.10
30069;DHT22;16894;49.456;10.644;2022-08-05T03:50:46;21.50;97.30
30069;DHT22;16894;49.456;10.644;2022-08-05T03:53:18;21.50;97.20
30069;DHT22;16894;49.456;10.644;2022-08-05T03:55:51;21.40;97.20
30069;DHT22;16894;49.456;10.644;2022-08-05T03:58:19;21.40;97.20
30069;DHT22;16894;49.456;10.644;2022-08-05T04:00:46;21.40;97.20
30069;DHT22;16894;49.456;10.644;2022-08-05T04:03:14;21.30;97.60
30069;DHT22;16894;49.456;10.644;2022-08-05T04:05:41;21.20;97.80
30069;DHT22;16894;49.456;10.644;2022-08-05T04:08:09;21.30;98.00
30069;DHT22;16894;49.456;10.644;2022-08-05T04:10:36;21.20;98.30
30069;DHT22;16894;49.456;10.644;2022-08-05T04:13:02;21.30;97.90
30069;DHT22;16894;49.456;10.644;2022-08-05T04:15:28;21.30;97.70
30069;DHT22;16894;49.456;10.644;2022-08-05T04:17:54;21.30;98.00
30069;DHT22;16894;49.456;10.644;2022-08-05T04:20:21;21.30;97.80
30069;DHT22;16894;49.456;10.644;2022-08-05T04:22:47;21.40;97.90
30069;DHT22;16894;49.456;10.644;2022-08-05T04:25:14;21.40;97.50
30069;DHT22;16894;49.456;10.644;2022-08-05T04:27:40;21.40;97.70
30069;DHT22;16894;49.456;10.644;2022-08-05T04:30:07;21.50;97.80
30069;DHT22;16894;49.456;10.644;2022-08-05T04:32:33;21.50;97.70
30069;DHT22;16894;49.456;10.644;2022-08-05T04:34:58;21.40;98.20
30069;DHT22;16894;49.456;10.644;2022-08-05T04:37:24;21.30;97.60
30069;DHT22;16894;49.456;10.644;2022-08-05T04:40:03;21.30;98.00
30069;DHT22;16894;49.456;10.644;2022-08-05T04:42:28;21.30;98.00
30069;DHT22;16894;49.456;10.644;2022-08-05T04:44:54;21.30;98.00
30069;DHT22;16894;49.456;10.644;2022-08-05T04:47:20;21.30;98.20
30069;DHT22;16894;49.456;10.644;2022-08-05T04:49:45;21.30;98.10
30069;DHT22;16894;49.456;10.644;2022-08-05T04:52:11;21.30;98.10
30069;DHT22;16894;49.456;10.644;2022-08-05T04:54:37;21.30;98.20
30069;DHT22;16894;49.456;10.644;2022-08-05T04:57:02;21.30;98.50
30069;DHT22;16894;49.456;10.644;2022-08-05T04:59:28;21.30;98.30
30069;DHT22;16894;49.456;10.644;2022-08-05T05:01:54;21.30;98.40
30069;DHT22;16894;49.456;10.644;2022-08-05T05:04:19;21.30;98.60
30069;DHT22;16894;49.456;10.644;2022-08-05T05:06:45;21.30;98.80
30069;DHT22;16894;49.456;10.644;2022-08-05T05:09:11;21.30;99.30
30069;DHT22;16894;49.456;10.644;2022-08-05T05:11:37;21.30;99.40
30069;DHT22;16894;49.456;10.644;2022-08-05T05:14:03;21.40;99.10
30069;DHT22;16894;49.456;10.644;2022-08-05T05:16:29;21.50;98.90
30069;DHT22;16894;49.456;10.644;2022-08-05T05:18:54;21.60;99.20
30069;DHT22;16894;49.456;10.644;2022-08-05T05:21:20;21.60;99.30
30069;DHT22;16894;49.456;10.644;2022-08-05T05:23:47;21.70;99.50
30069;DHT22;16894;49.456;10.644;2022-08-05T05:26:13;21.70;99.60
30069;DHT22;16894;49.456;10.644;2022-08-05T05:28:38;21.80;99.20
30069;DHT22;16894;49.456;10.644;2022-08-05T05:31:04;21.90;98.60
30069;DHT22;16894;49.456;10.644;2022-08-05T05:33:30;22.00;98.60
30069;DHT22;16894;49.456;10.644;2022-08-05T05:35:55;22.00;99.20
30069;DHT22;16894;49.456;10.644;2022-08-05T05:38:21;22.10;99.30
30069;DHT22;16894;49.456;10.644;2022-08-05T05:40:46;22.20;99.20
30069;DHT22;16894;49.456;10.644;2022-08-05T05:43:12;22.30;99.40
30069;DHT22;16894;49.456;10.644;2022-08-05T05:45:38;22.50;98.90
30069;DHT22;16894;49.456;10.644;2022-08-05T05:48:04;22.70;98.60
30069;DHT22;16894;49.456;10.644;2022-08-05T05:50:34;23.00;98.10
30069;DHT22;16894;49.456;10.644;2022-08-05T05:53:00;23.30;97.90
30069;DHT22;16894;49.456;10.644;2022-08-05T05:55:26;23.50;96.70
30069;DHT22;16894;49.456;10.644;2022-08-05T05:57:52;23.70;96.20
30069;DHT22;16894;49.456;10.644;2022-08-05T06:00:19;23.80;95.60
30069;DHT22;16894;49.456;10.644;2022-08-05T06:02:46;23.80;95.60
30069;DHT22;16894;49.456;10.644;2022-08-05T06:05:14;23.80;95.60
30069;DHT22;16894;49.456;10.644;2022-08-05T06:07:40;23.80;95.20
30069;DHT22;16894;49.456;10.644;2022-08-05T06:10:07;23.80;95.30
30069;DHT22;16894;49.456;10.644;2022-08-05T06:12:35;23.70;95.50
30069;DHT22;16894;49.456;10.644;2022-08-05T06:15:01;23.70;95.40
30069;DHT22;16894;49.456;10.644;2022-08-05T06:17:28;23.60;95.60
30069;DHT22;16894;49.456;10.644;2022-08-05T06:19:53;23.60;95.60
30069;DHT22;16894;49.456;10.644;2022-08-05T06:22:24;23.60;95.80
30069;DHT22;16894;49.456;10.644;2022-08-05T06:24:50;23.60;95.80
30069;DHT22;16894;49.456;10.644;2022-08-05T06:27:16;23.60;95.90
30069;DHT22;16894;49.456;10.644;2022-08-05T06:29:42;23.60;96.10
30069;DHT22;16894;49.456;10.644;2022-08-05T06:32:08;23.70;96.10
30069;DHT22;16894;49.456;10.644;2022-08-05T06:34:34;23.80;96.20
30069;DHT22;16894;49.456;10.644;2022-08-05T06:37:00;24.00;96.40
30069;DHT22;16894;49.456;10.644;2022-08-05T06:39:26;24.00;95.90
30069;DHT22;16894;49.456;10.644;2022-08-05T06:41:51;24.10;96.00
30069;DHT22;16894;49.456;10.644;2022-08-05T06:44:17;24.20;95.90
30069;DHT22;16894;49.456;10.644;2022-08-05T06:46:43;24.30;96.00
30069;DHT22;16894;49.456;10.644;2022-08-05T06:49:08;24.40;95.60
30069;DHT22;16894;49.456;10.644;2022-08-05T06:51:34;24.60;95.80
30069;DHT22;16894;49.456;10.644;2022-08-05T06:54:01;24.70;95.60
30069;DHT22;16894;49.456;10.644;2022-08-05T06:56:28;24.80;95.60
30069;DHT22;16894;49.456;10.644;2022-08-05T06:58:54;24.80;95.60
30069;DHT22;16894;49.456;10.644;2022-08-05T07:01:20;24.90;95.50
30069;DHT22;16894;49.456;10.644;2022-08-05T07:03:45;25.00;95.00
30069;DHT22;16894;49.456;10.644;2022-08-05T07:06:12;25.10;94.90
30069;DHT22;16894;49.456;10.644;2022-08-05T07:08:37;25.20;94.80
30069;DHT22;16894;49.456;10.644;2022-08-05T07:11:03;25.30;94.80
30069;DHT22;16894;49.456;10.644;2022-08-05T07:13:30;25.30;94.30
30069;DHT22;16894;49.456;10.644;2022-08-05T07:16:16;25.40;94.00
30069;DHT22;16894;49.456;10.644;2022-08-05T07:19:01;25.50;94.00
30069;DHT22;16894;49.456;10.644;2022-08-05T07:21:26;25.50;93.50
30069;DHT22;16894;49.456;10.644;2022-08-05T07:23:52;25.40;93.60
30069;DHT22;16894;49.456;10.644;2022-08-05T07:26:18;25.40;93.40
30069;DHT22;16894;49.456;10.644;2022-08-05T07:28:43;25.50;93.40
30069;DHT22;16894;49.456;10.644;2022-08-05T07:31:09;25.50;93.30
30069;DHT22;16894;49.456;10.644;2022-08-05T07:33:35;25.60;93.30
30069;DHT22;16894;49.456;10.644;2022-08-05T07:36:00;25.70;93.30
30069;DHT22;16894;49.456;10.644;2022-08-05T07:38:26;25.80;93.40
30069;DHT22;16894;49.456;10.644;2022-08-05T07:40:52;25.90;93.30
30069;DHT22;16894;49.456;10.644;2022-08-05T07:43:17;25.90;93.10
30069;DHT22;16894;49.456;10.644;2022-08-05T07:45:43;25.80;92.70
30069;DHT22;16894;49.456;10.644;2022-08-05T07:48:10;25.80;92.80
30069;DHT22;16894;49.456;10.644;2022-08-05T07:50:36;25.80;93.00
30069;DHT22;16894;49.456;10.644;2022-08-05T07:53:02;25.90;92.60
30069;DHT22;16894;49.456;10.644;2022-08-05T07:55:28;26.00;92.30
30069;DHT22;16894;49.456;10.644;2022-08-05T07:57:56;26.00;92.00
30069;DHT22;16894;49.456;10.644;2022-08-05T08:00:21;26.10;91.70
30069;DHT22;16894;49.456;10.644;2022-08-05T08:02:47;26.20;91.60
30069;DHT22;16894;49.456;10.644;2022-08-05T08:05:13;26.30;91.20
30069;DHT22;16894;49.456;10.644;2022-08-05T08:07:39;26.30;90.80
30069;DHT22;16894;49.456;10.644;2022-08-05T08:10:05;26.40;90.70
30069;DHT22;16894;49.456;10.644;2022-08-05T08:12:30;26.50;90.40
30069;DHT22;16894;49.456;10.644;2022-08-05T08:14:56;26.60;89.70
30069;DHT22;16894;49.456;10.644;2022-08-05T08:17:22;26.70;89.30
30069;DHT22;16894;49.456;10.644;2022-08-05T08:19:48;26.70;88.20
30069;DHT22;16894;49.456;10.644;2022-08-05T08:22:14;27.00;86.40
30069;DHT22;16894;49.456;10.644;2022-08-05T08:24:40;27.40;85.10
30069;DHT22;16894;49.456;10.644;2022-08-05T08:27:06;27.70;83.90
30069;DHT22;16894;49.456;10.644;2022-08-05T08:29:32;28.30;81.10
30069;DHT22;16894;49.456;10.644;2022-08-05T08:31:58;28.70;79.40
30069;DHT22;16894;49.456;10.644;2022-08-05T08:34:25;28.60;79.30
30069;DHT22;16894;49.456;10.644;2022-08-05T08:36:51;28.30;79.10
30069;DHT22;16894;49.456;10.644;2022-08-05T08:39:17;28.30;79.00
30069;DHT22;16894;49.456;10.644;2022-08-05T08:41:47;28.20;79.10
30069;DHT22;16894;49.456;10.644;2022-08-05T08:44:17;28.00;79.00
30069;DHT22;16894;49.456;10.644;2022-08-05T08:46:44;27.90;78.90
30069;DHT22;16894;49.456;10.644;2022-08-05T08:49:15;28.10;78.10
30069;DHT22;16894;49.456;10.644;2022-08-05T08:51:42;28.10;76.40
30069;DHT22;16894;49.456;10.644;2022-08-05T08:54:11;28.20;76.70
30069;DHT22;16894;49.456;10.644;2022-08-05T08:56:39;28.50;74.00
30069;DHT22;16894;49.456;10.644;2022-08-05T08:59:06;29.00;73.80
30069;DHT22;16894;49.456;10.644;2022-08-05T09:01:31;29.60;71.60
30069;DHT22;16894;49.456;10.644;2022-08-05T09:03:58;30.00;69.80
30069;DHT22;16894;49.456;10.644;2022-08-05T09:06:26;30.30;69.10
30069;DHT22;16894;49.456;10.644;2022-08-05T09:08:53;30.40;66.30
30069;DHT22;16894;49.456;10.644;2022-08-05T09:11:19;30.80;65.60
30069;DHT22;16894;49.456;10.644;2022-08-05T09:13:44;30.90;64.60
30069;DHT22;16894;49.456;10.644;2022-08-05T09:16:12;31.20;63.90
30069;DHT22;16894;49.456;10.644;2022-08-05T09:18:38;31.50;62.90
30069;DHT22;16894;49.456;10.644;2022-08-05T09:21:04;31.70;62.50
30069;DHT22;16894;49.456;10.644;2022-08-05T09:23:30;31.80;60.50
30069;DHT22;16894;49.456;10.644;2022-08-05T09:26:10;31.80;60.80
30069;DHT22;16894;49.456;10.644;2022-08-05T09:28:38;31.80;61.40
30069;DHT22;16894;49.456;10.644;2022-08-05T09:31:06;31.70;61.40
30069;DHT22;16894;49.456;10.644;2022-08-05T09:33:55;31.80;61.40
30069;DHT22;16894;49.456;10.644;2022-08-05T09:36:23;32.10;58.80
30069;DHT22;16894;49.456;10.644;2022-08-05T09:39:00;32.30;59.40
30069;DHT22;16894;49.456;10.644;2022-08-05T09:41:26;32.70;58.50
30069;DHT22;16894;49.456;10.644;2022-08-05T09:43:53;32.70;57.90
30069;DHT22;16894;49.456;10.644;2022-08-05T09:46:29;32.80;57.10
30069;DHT22;16894;49.456;10.644;2022-08-05T09:49:00;32.90;57.20
30069;DHT22;16894;49.456;10.644;2022-08-05T09:51:38;33.10;57.10
30069;DHT22;16894;49.456;10.644;2022-08-05T09:54:06;33.40;55.60
30069;DHT22;16894;49.456;10.644;2022-08-05T09:56:37;33.40;54.40
30069;DHT22;16894;49.456;10.644;2022-08-05T09:59:06;33.60;54.80
30069;DHT22;16894;49.456;10.644;2022-08-05T10:01:34;34.00;54.10
30069;DHT22;16894;49.456;10.644;2022-08-05T10:04:19;34.30;53.20
30069;DHT22;16894;49.456;10.644;2022-08-05T10:06:55;34.40;52.80
30069;DHT22;16894;49.456;10.644;2022-08-05T10:09:22;34.30;51.90
30069;DHT22;16894;49.456;10.644;2022-08-05T10:11:48;33.80;52.70
30069;DHT22;16894;49.456;10.644;2022-08-05T10:14:29;33.80;53.50
30069;DHT22;16894;49.456;10.644;2022-08-05T10:17:10;33.80;53.00
30069;DHT22;16894;49.456;10.644;2022-08-05T10:19:36;34.20;52.30
30069;DHT22;16894;49.456;10.644;2022-08-05T10:22:02;34.10;53.00
30069;DHT22;16894;49.456;10.644;2022-08-05T10:24:31;34.10;52.10
30069;DHT22;16894;49.456;10.644;2022-08-05T10:26:58;34.10;52.50
30069;DHT22;16894;49.456;10.644;2022-08-05T10:29:25;34.10;52.10
30069;DHT22;16894;49.456;10.644;2022-08-05T10:31:51;33.70;52.80
30069;DHT22;16894;49.456;10.644;2022-08-05T10:34:17;33.80;52.80
30069;DHT22;16894;49.456;10.644;2022-08-05T10:36:44;33.80;52.70
30069;DHT22;16894;49.456;10.644;2022-08-05T10:39:17;33.90;53.10
30069;DHT22;16894;49.456;10.644;2022-08-05T10:41:57;34.40;52.80
30069;DHT22;16894;49.456;10.644;2022-08-05T10:44:24;34.90;51.90
30069;DHT22;16894;49.456;10.644;2022-08-05T10:46:53;35.50;50.80
30069;DHT22;16894;49.456;10.644;2022-08-05T10:49:19;34.40;51.90
30069;DHT22;16894;49.456;10.644;2022-08-05T10:51:54;33.70;52.90
30069;DHT22;16894;49.456;10.644;2022-08-05T10:54:24;33.40;53.40
30069;DHT22;16894;49.456;10.644;2022-08-05T10:57:11;33.20;53.70
30069;DHT22;16894;49.456;10.644;2022-08-05T10:59:37;33.50;53.80
30069;DHT22;16894;49.456;10.644;2022-08-05T11:02:11;34.30;53.20
30069;DHT22;16894;49.456;10.644;2022-08-05T11:04:45;34.80;52.00
30069;DHT22;16894;49.456;10.644;2022-08-05T11:07:12;35.30;52.10
30069;DHT22;16894;49.456;10.644;2022-08-05T11:09:47;35.30;51.00
30069;DHT22;16894;49.456;10.644;2022-08-05T11:15:17;35.80;50.20
30069;DHT22;16894;49.456;10.644;2022-08-05T11:17:50;36.20;49.90
30069;DHT22;16894;49.456;10.644;2022-08-05T11:20:38;37.10;48.80
30069;DHT22;16894;49.456;10.644;2022-08-05T11:23:27;36.90;49.30
30069;DHT22;16894;49.456;10.644;2022-08-05T11:33:32;34.50;50.00
30069;DHT22;16894;49.456;10.644;2022-08-05T11:36:04;33.90;50.60
30069;DHT22;16894;49.456;10.644;2022-08-05T11:43:53;36.00;50.40
30069;DHT22;16894;49.456;10.644;2022-08-05T11:46:42;36.60;48.80
30069;DHT22;16894;49.456;10.644;2022-08-05T11:49:12;37.10;48.40
30069;DHT22;16894;49.456;10.644;2022-08-05T11:51:41;37.70;48.00
30069;DHT22;16894;49.456;10.644;2022-08-05T11:54:08;39.00;46.10
30069;DHT22;16894;49.456;10.644;2022-08-05T11:56:48;39.30;45.20
30069;DHT22;16894;49.456;10.644;2022-08-05T11:59:25;39.30;45.40
30069;DHT22;16894;49.456;10.644;2022-08-05T12:02:03;38.50;46.10
30069;DHT22;16894;49.456;10.644;2022-08-05T12:04:45;39.40;45.10
30069;DHT22;16894;49.456;10.644;2022-08-05T12:07:14;39.10;44.80
30069;DHT22;16894;49.456;10.644;2022-08-05T12:10:02;39.10;44.90
30069;DHT22;16894;49.456;10.644;2022-08-05T12:12:27;39.20;45.00
30069;DHT22;16894;49.456;10.644;2022-08-05T12:14:54;39.00;45.50
30069;DHT22;16894;49.456;10.644;2022-08-05T12:17:20;39.10;44.20
30069;DHT22;16894;49.456;10.644;2022-08-05T12:22:15;38.90;44.60
30069;DHT22;16894;49.456;10.644;2022-08-05T12:24:43;38.40;44.80
30069;DHT22;16894;49.456;10.644;2022-08-05T12:27:14;38.70;44.50
30069;DHT22;16894;49.456;10.644;2022-08-05T12:29:43;39.00;43.90
30069;DHT22;16894;49.456;10.644;2022-08-05T12:32:08;39.20;44.10
30069;DHT22;16894;49.456;10.644;2022-08-05T12:34:36;39.70;44.10
30069;DHT22;16894;49.456;10.644;2022-08-05T12:37:07;40.20;42.00
30069;DHT22;16894;49.456;10.644;2022-08-05T12:39:37;39.70;43.50
30069;DHT22;16894;49.456;10.644;2022-08-05T12:42:11;40.40;42.30
30069;DHT22;16894;49.456;10.644;2022-08-05T12:44:37;40.90;42.00
30069;DHT22;16894;49.456;10.644;2022-08-05T12:47:04;41.50;41.20
30069;DHT22;16894;49.456;10.644;2022-08-05T12:49:47;41.00;42.00
30069;DHT22;16894;49.456;10.644;2022-08-05T12:52:18;41.30;42.30
30069;DHT22;16894;49.456;10.644;2022-08-05T12:54:46;41.30;41.50
30069;DHT22;16894;49.456;10.644;2022-08-05T12:57:16;41.60;41.70
30069;DHT22;16894;49.456;10.644;2022-08-05T12:59:52;42.10;41.10
30069;DHT22;16894;49.456;10.644;2022-08-05T13:02:24;42.50;40.20
30069;DHT22;16894;49.456;10.644;2022-08-05T13:04:50;42.00;40.00
30069;DHT22;16894;49.456;10.644;2022-08-05T13:07:23;40.60;40.90
30069;DHT22;16894;49.456;10.644;2022-08-05T13:09:56;40.80;41.10
30069;DHT22;16894;49.456;10.644;2022-08-05T13:12:25;40.70;40.20
30069;DHT22;16894;49.456;10.644;2022-08-05T13:14:56;41.40;40.10
30069;DHT22;16894;49.456;10.644;2022-08-05T13:17:30;40.90;40.10
30069;DHT22;16894;49.456;10.644;2022-08-05T13:20:11;40.70;40.70
30069;DHT22;16894;49.456;10.644;2022-08-05T13:22:41;40.70;40.20
30069;DHT22;16894;49.456;10.644;2022-08-05T13:25:11;40.60;41.20
30069;DHT22;16894;49.456;10.644;2022-08-05T13:27:41;40.70;40.60
30069;DHT22;16894;49.456;10.644;2022-08-05T13:30:11;41.40;40.30
30069;DHT22;16894;49.456;10.644;2022-08-05T13:32:38;42.40;39.50
30069;DHT22;16894;49.456;10.644;2022-08-05T13:35:04;41.40;39.40
30069;DHT22;16894;49.456;10.644;2022-08-05T13:37:30;41.30;40.00
30069;DHT22;16894;49.456;10.644;2022-08-05T13:39:57;42.40;39.40
30069;DHT22;16894;49.456;10.644;2022-08-05T13:42:23;41.30;39.50
30069;DHT22;16894;49.456;10.644;2022-08-05T13:44:53;41.20;39.80
30069;DHT22;16894;49.456;10.644;2022-08-05T13:47:20;41.80;39.20
30069;DHT22;16894;49.456;10.644;2022-08-05T13:49:46;42.10;38.70
30069;DHT22;16894;49.456;10.644;2022-08-05T13:52:14;42.10;38.90
30069;DHT22;16894;49.456;10.644;2022-08-05T13:54:40;42.90;39.40
30069;DHT22;16894;49.456;10.644;2022-08-05T13:57:07;41.90;39.40
30069;DHT22;16894;49.456;10.644;2022-08-05T13:59:34;42.40;38.90
30069;DHT22;16894;49.456;10.644;2022-08-05T14:02:00;42.40;39.20
30069;DHT22;16894;49.456;10.644;2022-08-05T14:04:44;43.20;38.50
30069;DHT22;16894;49.456;10.644;2022-08-05T14:07:34;44.10;37.70
30069;DHT22;16894;49.456;10.644;2022-08-05T14:10:01;42.70;37.90
30069;DHT22;16894;49.456;10.644;2022-08-05T14:12:26;40.50;39.80
30069;DHT22;16894;49.456;10.644;2022-08-05T14:14:52;38.80;40.80
30069;DHT22;16894;49.456;10.644;2022-08-05T14:17:18;36.70;42.80
30069;DHT22;16894;49.456;10.644;2022-08-05T14:19:44;36.20;43.60
30069;DHT22;16894;49.456;10.644;2022-08-05T14:22:10;36.80;43.00
30069;DHT22;16894;49.456;10.644;2022-08-05T14:24:36;38.00;42.90
30069;DHT22;16894;49.456;10.644;2022-08-05T14:27:04;39.30;41.50
30069;DHT22;16894;49.456;10.644;2022-08-05T14:29:30;40.50;40.70
30069;DHT22;16894;49.456;10.644;2022-08-05T14:31:55;41.80;39.20
30069;DHT22;16894;49.456;10.644;2022-08-05T14:34:21;41.80;39.30
30069;DHT22;16894;49.456;10.644;2022-08-05T14:36:47;42.20;39.50
30069;DHT22;16894;49.456;10.644;2022-08-05T14:39:12;42.20;39.20
30069;DHT22;16894;49.456;10.644;2022-08-05T14:41:38;42.40;38.90
30069;DHT22;16894;49.456;10.644;2022-08-05T14:44:04;42.30;39.70
30069;DHT22;16894;49.456;10.644;2022-08-05T14:46:30;42.80;39.20
30069;DHT22;16894;49.456;10.644;2022-08-05T14:49:00;41.80;39.00
30069;DHT22;16894;49.456;10.644;2022-08-05T14:51:26;41.90;38.70
30069;DHT22;16894;49.456;10.644;2022-08-05T14:53:52;42.10;39.10
30069;DHT22;16894;49.456;10.644;2022-08-05T14:56:18;42.00;39.20
30069;DHT22;16894;49.456;10.644;2022-08-05T14:58:43;41.40;39.70
30069;DHT22;16894;49.456;10.644;2022-08-05T15:01:09;40.50;39.90
30069;DHT22;16894;49.456;10.644;2022-08-05T15:03:35;39.20;41.20
30069;DHT22;16894;49.456;10.644;2022-08-05T15:06:01;38.90;41.50
30069;DHT22;16894;49.456;10.644;2022-08-05T15:08:27;38.40;42.40
30069;DHT22;16894;49.456;10.644;2022-08-05T15:10:53;38.20;42.40
30069;DHT22;16894;49.456;10.644;2022-08-05T15:13:18;38.00;42.60
30069;DHT22;16894;49.456;10.644;2022-08-05T15:15:44;37.40;42.70
30069;DHT22;16894;49.456;10.644;2022-08-05T15:18:10;36.80;43.50
30069;DHT22;16894;49.456;10.644;2022-08-05T15:20:36;36.20;44.40
30069;DHT22;16894;49.456;10.644;2022-08-05T15:23:03;35.80;45.50
30069;DHT22;16894;49.456;10.644;2022-08-05T15:25:29;35.40;45.50
30069;DHT22;16894;49.456;10.644;2022-08-05T15:27:54;35.30;46.70
30069;DHT22;16894;49.456;10.644;2022-08-05T15:30:20;35.50;46.70
30069;DHT22;16894;49.456;10.644;2022-08-05T15:32:46;35.00;46.60
30069;DHT22;16894;49.456;10.644;2022-08-05T15:35:11;34.70;47.20
30069;DHT22;16894;49.456;10.644;2022-08-05T15:37:37;34.40;47.50
30069;DHT22;16894;49.456;10.644;2022-08-05T15:40:03;34.10;48.00
30069;DHT22;16894;49.456;10.644;2022-08-05T15:42:29;33.70;49.10
30069;DHT22;16894;49.456;10.644;2022-08-05T15:44:54;33.40;48.90
30069;DHT22;16894;49.456;10.644;2022-08-05T15:47:21;33.20;49.40
30069;DHT22;16894;49.456;10.644;2022-08-05T15:49:50;32.70;50.60
30069;DHT22;16894;49.456;10.644;2022-08-05T15:52:19;32.30;50.90